sensor_id;sensor_type;location;lat;lon;timestamp;P1;durP1;ratioP1;P2;durP2;ratioP2
16828;SDS011;8531;48.078;11.968;2022-12-18T00:02:16;66.27;;;23.73;;
16828;SDS011;8531;48.078;11.968;2022-12-18T00:04:42;46.97;;;24.07;;
16828;SDS011;8531;48.078;11.968;2022-12-18T00:07:08;53.80;;;25.60;;
16828;SDS011;8531;48.078;11.968;2022-12-18T00:09:33;56.93;;;24.97;;
16828;SDS011;8531;48.078;11.968;2022-12-18T00:11:59;61.47;;;25.10;;
16828;SDS011;8531;48.078;11.968;2022-12-18T00:14:25;59.93;;;25.33;;
16828;SDS011;8531;48.078;11.968;2022-12-18T00:16:51;44.87;;;22.50;;
16828;SDS011;8531;48.078;11.968;2022-12-18T00:19:16;61.43;;;25.13;;
16828;SDS011;8531;48.078;11.968;2022-12-18T00:21:43;52.73;;;22.97;;
16828;SDS011;8531;48.078;11.968;2022-12-18T00:24:09;56.40;;;25.10;;
16828;SDS011;8531;48.078;11.968;2022-12-18T00:26:37;46.53;;;24.30;;
16828;SDS011;8531;48.078;11.968;2022-12-18T00:29:10;49.57;;;24.47;;
16828;SDS011;8531;48.078;11.968;2022-12-18T00:31:39;51.50;;;25.77;;
16828;SDS011;8531;48.078;11.968;2022-12-18T00:34:05;55.87;;;26.37;;
16828;SDS011;8531;48.078;11.968;2022-12-18T00:36:33;51.73;;;24.23;;
16828;SDS011;8531;48.078;11.968;2022-12-18T00:39:00;47.60;;;23.40;;
16828;SDS011;8531;48.078;11.968;2022-12-18T00:41:28;50.83;;;23.20;;
16828;SDS011;8531;48.078;11.968;2022-12-18T00:44:13;44.40;;;22.00;;
16828;SDS011;8531;48.078;11.968;2022-12-18T00:46:40;64.10;;;25.97;;
16828;SDS011;8531;48.078;11.968;2022-12-18T00:49:07;49.90;;;23.33;;
16828;SDS011;8531;48.078;11.968;2022-12-18T00:51:33;48.27;;;22.33;;
16828;SDS011;8531;48.078;11.968;2022-12-18T00:53:59;43.17;;;22.77;;
16828;SDS011;8531;48.078;11.968;2022-12-18T00:56:25;51.83;;;24.10;;
16828;SDS011;8531;48.078;11.968;2022-12-18T00:58:50;45.67;;;23.63;;
16828;SDS011;8531;48.078;11.968;2022-12-18T01:01:16;48.27;;;23.63;;
16828;SDS011;8531;48.078;11.968;2022-12-18T01:03:42;40.73;;;21.43;;
16828;SDS011;8531;48.078;11.968;2022-12-18T01:06:10;42.40;;;22.27;;
16828;SDS011;8531;48.078;11.968;2022-12-18T01:08:38;50.60;;;23.80;;
16828;SDS011;8531;48.078;11.968;2022-12-18T01:11:08;44.70;;;22.77;;
16828;SDS011;8531;48.078;11.968;2022-12-18T01:13:38;47.93;;;24.03;;
16828;SDS011;8531;48.078;11.968;2022-12-18T01:16:05;51.23;;;24.23;;
16828;SDS011;8531;48.078;11.968;2022-12-18T01:18:31;44.60;;;22.30;;
16828;SDS011;8531;48.078;11.968;2022-12-18T01:20:57;52.03;;;25.63;;
16828;SDS011;8531;48.078;11.968;2022-12-18T01:23:23;41.57;;;21.93;;
16828;SDS011;8531;48.078;11.968;2022-12-18T01:25:48;49.87;;;24.47;;
16828;SDS011;8531;48.078;11.968;2022-12-18T01:28:14;45.13;;;23.80;;
16828;SDS011;8531;48.078;11.968;2022-12-18T01:30:40;48.87;;;23.50;;
16828;SDS011;8531;48.078;11.968;2022-12-18T01:33:05;39.97;;;21.67;;
16828;SDS011;8531;48.078;11.968;2022-12-18T01:35:31;45.93;;;22.73;;
16828;SDS011;8531;48.078;11.968;2022-12-18T01:37:57;43.30;;;22.17;;
16828;SDS011;8531;48.078;11.968;2022-12-18T01:40:22;34.07;;;19.50;;
16828;SDS011;8531;48.078;11.968;2022-12-18T01:42:51;45.73;;;22.67;;
16828;SDS011;8531;48.078;11.968;2022-12-18T01:47:47;36.47;;;20.40;;
16828;SDS011;8531;48.078;11.968;2022-12-18T01:50:17;50.17;;;20.87;;
16828;SDS011;8531;48.078;11.968;2022-12-18T01:52:44;34.50;;;19.33;;
16828;SDS011;8531;48.078;11.968;2022-12-18T01:55:14;37.73;;;20.13;;
16828;SDS011;8531;48.078;11.968;2022-12-18T01:57:43;42.53;;;20.73;;
16828;SDS011;8531;48.078;11.968;2022-12-18T02:00:18;46.43;;;20.27;;
16828;SDS011;8531;48.078;11.968;2022-12-18T02:02:45;34.47;;;18.53;;
16828;SDS011;8531;48.078;11.968;2022-12-18T02:05:13;42.93;;;21.83;;
16828;SDS011;8531;48.078;11.968;2022-12-18T02:10:37;40.17;;;19.07;;
16828;SDS011;8531;48.078;11.968;2022-12-18T02:16:20;41.43;;;20.10;;
16828;SDS011;8531;48.078;11.968;2022-12-18T02:19:28;40.13;;;20.93;;
16828;SDS011;8531;48.078;11.968;2022-12-18T02:24:34;36.30;;;19.50;;
16828;SDS011;8531;48.078;11.968;2022-12-18T02:27:37;36.53;;;18.57;;
16828;SDS011;8531;48.078;11.968;2022-12-18T02:30:04;42.50;;;19.83;;
16828;SDS011;8531;48.078;11.968;2022-12-18T02:32:36;41.10;;;19.47;;
16828;SDS011;8531;48.078;11.968;2022-12-18T02:35:05;38.77;;;19.10;;
16828;SDS011;8531;48.078;11.968;2022-12-18T02:37:39;38.23;;;19.20;;
16828;SDS011;8531;48.078;11.968;2022-12-18T02:40:07;37.47;;;18.33;;
16828;SDS011;8531;48.078;11.968;2022-12-18T02:42:34;40.67;;;19.33;;
16828;SDS011;8531;48.078;11.968;2022-12-18T02:45:00;38.37;;;19.73;;
16828;SDS011;8531;48.078;11.968;2022-12-18T02:47:27;37.53;;;19.40;;
16828;SDS011;8531;48.078;11.968;2022-12-18T02:50:05;49.30;;;22.87;;
16828;SDS011;8531;48.078;11.968;2022-12-18T03:01:03;43.57;;;21.23;;
16828;SDS011;8531;48.078;11.968;2022-12-18T03:06:21;40.93;;;20.97;;
16828;SDS011;8531;48.078;11.968;2022-12-18T03:08:54;43.33;;;20.07;;
16828;SDS011;8531;48.078;11.968;2022-12-18T03:11:24;40.67;;;20.10;;
16828;SDS011;8531;48.078;11.968;2022-12-18T03:14:12;49.70;;;22.73;;
16828;SDS011;8531;48.078;11.968;2022-12-18T03:16:40;41.87;;;19.80;;
16828;SDS011;8531;48.078;11.968;2022-12-18T03:19:11;41.60;;;20.90;;
16828;SDS011;8531;48.078;11.968;2022-12-18T03:21:42;43.43;;;19.77;;
16828;SDS011;8531;48.078;11.968;2022-12-18T03:24:13;39.73;;;20.57;;
16828;SDS011;8531;48.078;11.968;2022-12-18T03:26:41;39.60;;;20.37;;
16828;SDS011;8531;48.078;11.968;2022-12-18T03:29:16;41.77;;;20.70;;
16828;SDS011;8531;48.078;11.968;2022-12-18T03:31:51;43.20;;;20.37;;
16828;SDS011;8531;48.078;11.968;2022-12-18T03:34:23;40.93;;;18.33;;
16828;SDS011;8531;48.078;11.968;2022-12-18T03:36:54;40.73;;;19.77;;
16828;SDS011;8531;48.078;11.968;2022-12-18T03:39:20;41.67;;;20.30;;
16828;SDS011;8531;48.078;11.968;2022-12-18T03:44:26;36.83;;;19.47;;
16828;SDS011;8531;48.078;11.968;2022-12-18T03:54:38;35.57;;;18.67;;
16828;SDS011;8531;48.078;11.968;2022-12-18T03:57:14;42.30;;;21.27;;
16828;SDS011;8531;48.078;11.968;2022-12-18T03:59:43;40.93;;;20.37;;
16828;SDS011;8531;48.078;11.968;2022-12-18T04:02:10;40.47;;;19.73;;
16828;SDS011;8531;48.078;11.968;2022-12-18T04:04:37;41.00;;;19.43;;
16828;SDS011;8531;48.078;11.968;2022-12-18T04:07:04;37.13;;;19.67;;
16828;SDS011;8531;48.078;11.968;2022-12-18T04:09:31;37.17;;;17.97;;
16828;SDS011;8531;48.078;11.968;2022-12-18T04:11:59;39.80;;;20.00;;
16828;SDS011;8531;48.078;11.968;2022-12-18T04:14:24;37.47;;;18.80;;
16828;SDS011;8531;48.078;11.968;2022-12-18T04:16:50;36.07;;;18.07;;
16828;SDS011;8531;48.078;11.968;2022-12-18T04:19:16;36.83;;;17.97;;
16828;SDS011;8531;48.078;11.968;2022-12-18T04:21:41;33.63;;;18.37;;
16828;SDS011;8531;48.078;11.968;2022-12-18T04:24:07;37.47;;;19.27;;
16828;SDS011;8531;48.078;11.968;2022-12-18T04:26:33;34.47;;;18.67;;
16828;SDS011;8531;48.078;11.968;2022-12-18T04:28:59;40.73;;;19.83;;
16828;SDS011;8531;48.078;11.968;2022-12-18T04:31:25;37.53;;;19.47;;
16828;SDS011;8531;48.078;11.968;2022-12-18T04:33:51;36.13;;;18.50;;
16828;SDS011;8531;48.078;11.968;2022-12-18T04:36:16;39.27;;;18.93;;
16828;SDS011;8531;48.078;11.968;2022-12-18T04:38:42;36.30;;;16.83;;
16828;SDS011;8531;48.078;11.968;2022-12-18T04:41:08;32.90;;;18.17;;
16828;SDS011;8531;48.078;11.968;2022-12-18T04:43:33;36.53;;;18.00;;
16828;SDS011;8531;48.078;11.968;2022-12-18T04:46:03;38.60;;;18.90;;
16828;SDS011;8531;48.078;11.968;2022-12-18T04:48:30;43.00;;;20.27;;
16828;SDS011;8531;48.078;11.968;2022-12-18T04:50:55;36.70;;;18.50;;
16828;SDS011;8531;48.078;11.968;2022-12-18T04:53:21;43.10;;;20.33;;
16828;SDS011;8531;48.078;11.968;2022-12-18T04:55:47;38.37;;;19.53;;
16828;SDS011;8531;48.078;11.968;2022-12-18T04:58:12;35.47;;;17.40;;
16828;SDS011;8531;48.078;11.968;2022-12-18T05:00:38;33.73;;;18.60;;
16828;SDS011;8531;48.078;11.968;2022-12-18T05:03:04;29.50;;;17.47;;
16828;SDS011;8531;48.078;11.968;2022-12-18T05:05:30;35.73;;;18.13;;
16828;SDS011;8531;48.078;11.968;2022-12-18T05:07:56;35.80;;;17.90;;
16828;SDS011;8531;48.078;11.968;2022-12-18T05:10:21;33.60;;;17.67;;
16828;SDS011;8531;48.078;11.968;2022-12-18T05:12:47;32.43;;;17.23;;
16828;SDS011;8531;48.078;11.968;2022-12-18T05:15:31;36.33;;;18.87;;
16828;SDS011;8531;48.078;11.968;2022-12-18T05:17:58;33.77;;;17.53;;
16828;SDS011;8531;48.078;11.968;2022-12-18T05:20:25;31.37;;;16.73;;
16828;SDS011;8531;48.078;11.968;2022-12-18T05:22:51;31.37;;;16.20;;
16828;SDS011;8531;48.078;11.968;2022-12-18T05:25:17;34.40;;;16.83;;
16828;SDS011;8531;48.078;11.968;2022-12-18T05:27:44;32.63;;;16.70;;
16828;SDS011;8531;48.078;11.968;2022-12-18T05:30:10;32.50;;;17.40;;
16828;SDS011;8531;48.078;11.968;2022-12-18T05:32:37;34.00;;;17.77;;
16828;SDS011;8531;48.078;11.968;2022-12-18T05:35:03;31.77;;;15.97;;
16828;SDS011;8531;48.078;11.968;2022-12-18T05:37:30;33.80;;;17.03;;
16828;SDS011;8531;48.078;11.968;2022-12-18T05:39:56;34.13;;;15.90;;
16828;SDS011;8531;48.078;11.968;2022-12-18T05:42:21;39.17;;;17.87;;
16828;SDS011;8531;48.078;11.968;2022-12-18T05:44:47;32.33;;;15.43;;
16828;SDS011;8531;48.078;11.968;2022-12-18T05:47:13;32.07;;;15.40;;
16828;SDS011;8531;48.078;11.968;2022-12-18T05:49:39;34.37;;;16.07;;
16828;SDS011;8531;48.078;11.968;2022-12-18T05:52:04;27.17;;;13.83;;
16828;SDS011;8531;48.078;11.968;2022-12-18T05:54:30;39.17;;;16.90;;
16828;SDS011;8531;48.078;11.968;2022-12-18T05:56:56;31.87;;;15.47;;
16828;SDS011;8531;48.078;11.968;2022-12-18T05:59:22;34.83;;;16.37;;
16828;SDS011;8531;48.078;11.968;2022-12-18T06:01:48;34.23;;;16.80;;
16828;SDS011;8531;48.078;11.968;2022-12-18T06:04:14;29.83;;;14.73;;
16828;SDS011;8531;48.078;11.968;2022-12-18T06:06:39;38.10;;;16.00;;
16828;SDS011;8531;48.078;11.968;2022-12-18T06:09:05;33.57;;;16.53;;
16828;SDS011;8531;48.078;11.968;2022-12-18T06:11:38;32.77;;;15.90;;
16828;SDS011;8531;48.078;11.968;2022-12-18T06:14:04;28.33;;;15.40;;
16828;SDS011;8531;48.078;11.968;2022-12-18T06:16:31;31.77;;;15.90;;
16828;SDS011;8531;48.078;11.968;2022-12-18T06:19:01;33.57;;;16.17;;
16828;SDS011;8531;48.078;11.968;2022-12-18T06:21:29;32.53;;;15.90;;
16828;SDS011;8531;48.078;11.968;2022-12-18T06:23:55;27.40;;;15.07;;
16828;SDS011;8531;48.078;11.968;2022-12-18T06:26:21;34.57;;;16.43;;
16828;SDS011;8531;48.078;11.968;2022-12-18T06:28:47;27.23;;;13.90;;
16828;SDS011;8531;48.078;11.968;2022-12-18T06:31:13;29.50;;;14.67;;
16828;SDS011;8531;48.078;11.968;2022-12-18T06:33:39;29.07;;;14.40;;
16828;SDS011;8531;48.078;11.968;2022-12-18T06:36:08;30.73;;;15.03;;
16828;SDS011;8531;48.078;11.968;2022-12-18T06:38:37;32.63;;;16.70;;
16828;SDS011;8531;48.078;11.968;2022-12-18T06:41:07;27.50;;;14.30;;
16828;SDS011;8531;48.078;11.968;2022-12-18T06:43:33;33.47;;;15.90;;
16828;SDS011;8531;48.078;11.968;2022-12-18T06:45:59;34.00;;;16.53;;
16828;SDS011;8531;48.078;11.968;2022-12-18T06:48:26;26.53;;;14.43;;
16828;SDS011;8531;48.078;11.968;2022-12-18T06:50:53;25.17;;;13.67;;
16828;SDS011;8531;48.078;11.968;2022-12-18T06:53:18;24.87;;;13.07;;
16828;SDS011;8531;48.078;11.968;2022-12-18T06:55:44;25.30;;;14.50;;
16828;SDS011;8531;48.078;11.968;2022-12-18T06:58:10;26.80;;;13.30;;
16828;SDS011;8531;48.078;11.968;2022-12-18T07:00:35;30.23;;;15.30;;
16828;SDS011;8531;48.078;11.968;2022-12-18T07:03:01;29.10;;;15.17;;
16828;SDS011;8531;48.078;11.968;2022-12-18T07:05:27;34.20;;;17.53;;
16828;SDS011;8531;48.078;11.968;2022-12-18T07:07:52;29.77;;;14.77;;
16828;SDS011;8531;48.078;11.968;2022-12-18T07:10:18;30.27;;;14.67;;
16828;SDS011;8531;48.078;11.968;2022-12-18T07:12:44;31.30;;;15.03;;
16828;SDS011;8531;48.078;11.968;2022-12-18T07:15:09;30.63;;;15.33;;
16828;SDS011;8531;48.078;11.968;2022-12-18T07:17:35;32.83;;;16.30;;
16828;SDS011;8531;48.078;11.968;2022-12-18T07:20:01;25.43;;;14.27;;
16828;SDS011;8531;48.078;11.968;2022-12-18T07:22:27;32.17;;;16.37;;
16828;SDS011;8531;48.078;11.968;2022-12-18T07:24:53;33.80;;;15.40;;
16828;SDS011;8531;48.078;11.968;2022-12-18T07:27:18;38.10;;;17.23;;
16828;SDS011;8531;48.078;11.968;2022-12-18T07:29:44;33.73;;;16.33;;
16828;SDS011;8531;48.078;11.968;2022-12-18T07:32:10;35.20;;;16.20;;
16828;SDS011;8531;48.078;11.968;2022-12-18T07:34:35;31.70;;;15.33;;
16828;SDS011;8531;48.078;11.968;2022-12-18T07:37:01;29.60;;;15.40;;
16828;SDS011;8531;48.078;11.968;2022-12-18T07:39:27;34.13;;;16.40;;
16828;SDS011;8531;48.078;11.968;2022-12-18T07:41:53;27.97;;;14.77;;
16828;SDS011;8531;48.078;11.968;2022-12-18T07:44:37;30.63;;;14.97;;
16828;SDS011;8531;48.078;11.968;2022-12-18T07:47:03;29.73;;;14.13;;
16828;SDS011;8531;48.078;11.968;2022-12-18T07:49:29;31.97;;;15.83;;
16828;SDS011;8531;48.078;11.968;2022-12-18T07:51:55;28.27;;;14.63;;
16828;SDS011;8531;48.078;11.968;2022-12-18T07:54:22;30.27;;;15.03;;
16828;SDS011;8531;48.078;11.968;2022-12-18T07:56:49;36.87;;;16.40;;
16828;SDS011;8531;48.078;11.968;2022-12-18T07:59:15;32.13;;;14.93;;
16828;SDS011;8531;48.078;11.968;2022-12-18T08:01:40;28.60;;;13.20;;
16828;SDS011;8531;48.078;11.968;2022-12-18T08:04:06;34.60;;;13.60;;
16828;SDS011;8531;48.078;11.968;2022-12-18T08:06:32;36.67;;;14.60;;
16828;SDS011;8531;48.078;11.968;2022-12-18T08:08:57;32.07;;;14.97;;
16828;SDS011;8531;48.078;11.968;2022-12-18T08:11:24;31.70;;;14.43;;
16828;SDS011;8531;48.078;11.968;2022-12-18T08:13:51;31.47;;;14.10;;
16828;SDS011;8531;48.078;11.968;2022-12-18T08:16:17;28.97;;;12.97;;
16828;SDS011;8531;48.078;11.968;2022-12-18T08:18:44;29.90;;;13.80;;
16828;SDS011;8531;48.078;11.968;2022-12-18T08:21:11;29.10;;;14.20;;
16828;SDS011;8531;48.078;11.968;2022-12-18T08:23:38;27.23;;;12.53;;
16828;SDS011;8531;48.078;11.968;2022-12-18T08:26:04;30.23;;;14.17;;
16828;SDS011;8531;48.078;11.968;2022-12-18T08:28:30;28.13;;;13.40;;
16828;SDS011;8531;48.078;11.968;2022-12-18T08:30:56;36.33;;;14.07;;
16828;SDS011;8531;48.078;11.968;2022-12-18T08:33:22;28.87;;;14.60;;
16828;SDS011;8531;48.078;11.968;2022-12-18T08:35:47;28.13;;;13.57;;
16828;SDS011;8531;48.078;11.968;2022-12-18T08:38:13;25.67;;;13.17;;
16828;SDS011;8531;48.078;11.968;2022-12-18T08:40:39;27.13;;;13.80;;
16828;SDS011;8531;48.078;11.968;2022-12-18T08:43:04;26.90;;;13.13;;
16828;SDS011;8531;48.078;11.968;2022-12-18T08:45:48;33.27;;;13.87;;
16828;SDS011;8531;48.078;11.968;2022-12-18T08:48:14;31.60;;;14.83;;
16828;SDS011;8531;48.078;11.968;2022-12-18T08:50:40;27.67;;;13.97;;
16828;SDS011;8531;48.078;11.968;2022-12-18T08:53:05;29.80;;;14.30;;
16828;SDS011;8531;48.078;11.968;2022-12-18T08:55:31;29.40;;;14.40;;
16828;SDS011;8531;48.078;11.968;2022-12-18T08:57:57;34.40;;;14.87;;
16828;SDS011;8531;48.078;11.968;2022-12-18T09:00:22;26.70;;;13.70;;
16828;SDS011;8531;48.078;11.968;2022-12-18T09:02:48;29.23;;;13.97;;
16828;SDS011;8531;48.078;11.968;2022-12-18T09:05:14;25.70;;;14.17;;
16828;SDS011;8531;48.078;11.968;2022-12-18T09:07:40;30.10;;;14.67;;
16828;SDS011;8531;48.078;11.968;2022-12-18T09:10:05;28.90;;;14.50;;
16828;SDS011;8531;48.078;11.968;2022-12-18T09:12:31;29.17;;;13.77;;
16828;SDS011;8531;48.078;11.968;2022-12-18T09:14:57;32.00;;;15.27;;
16828;SDS011;8531;48.078;11.968;2022-12-18T09:17:23;29.27;;;14.63;;
16828;SDS011;8531;48.078;11.968;2022-12-18T09:19:48;32.53;;;14.83;;
16828;SDS011;8531;48.078;11.968;2022-12-18T09:22:14;31.07;;;14.03;;
16828;SDS011;8531;48.078;11.968;2022-12-18T09:24:40;32.03;;;15.10;;
16828;SDS011;8531;48.078;11.968;2022-12-18T09:27:05;30.40;;;13.20;;
16828;SDS011;8531;48.078;11.968;2022-12-18T09:29:31;27.17;;;13.50;;
16828;SDS011;8531;48.078;11.968;2022-12-18T09:31:57;28.13;;;14.43;;
16828;SDS011;8531;48.078;11.968;2022-12-18T09:34:23;32.33;;;15.03;;
16828;SDS011;8531;48.078;11.968;2022-12-18T09:36:50;28.13;;;14.50;;
16828;SDS011;8531;48.078;11.968;2022-12-18T09:39:16;28.53;;;14.50;;
16828;SDS011;8531;48.078;11.968;2022-12-18T09:41:45;33.43;;;14.33;;
16828;SDS011;8531;48.078;11.968;2022-12-18T09:49:30;30.73;;;15.40;;
16828;SDS011;8531;48.078;11.968;2022-12-18T09:52:03;28.37;;;14.40;;
16828;SDS011;8531;48.078;11.968;2022-12-18T09:54:42;30.03;;;14.63;;
16828;SDS011;8531;48.078;11.968;2022-12-18T09:57:21;30.17;;;14.40;;
16828;SDS011;8531;48.078;11.968;2022-12-18T09:59:59;32.43;;;15.47;;
16828;SDS011;8531;48.078;11.968;2022-12-18T10:02:32;29.47;;;15.23;;
16828;SDS011;8531;48.078;11.968;2022-12-18T10:07:35;30.33;;;14.80;;
16828;SDS011;8531;48.078;11.968;2022-12-18T10:18:38;31.30;;;14.40;;
16828;SDS011;8531;48.078;11.968;2022-12-18T10:21:09;29.00;;;14.97;;
16828;SDS011;8531;48.078;11.968;2022-12-18T10:26:16;31.43;;;15.43;;
16828;SDS011;8531;48.078;11.968;2022-12-18T10:28:42;32.50;;;15.27;;
16828;SDS011;8531;48.078;11.968;2022-12-18T10:31:19;31.80;;;14.57;;
16828;SDS011;8531;48.078;11.968;2022-12-18T10:33:46;28.37;;;13.80;;
16828;SDS011;8531;48.078;11.968;2022-12-18T10:36:13;32.13;;;15.93;;
16828;SDS011;8531;48.078;11.968;2022-12-18T10:38:38;32.93;;;16.57;;
16828;SDS011;8531;48.078;11.968;2022-12-18T10:41:06;34.17;;;15.47;;
16828;SDS011;8531;48.078;11.968;2022-12-18T10:43:44;29.70;;;14.43;;
16828;SDS011;8531;48.078;11.968;2022-12-18T10:48:38;34.90;;;16.87;;
16828;SDS011;8531;48.078;11.968;2022-12-18T10:53:58;29.23;;;13.53;;
16828;SDS011;8531;48.078;11.968;2022-12-18T10:56:28;28.03;;;14.43;;
16828;SDS011;8531;48.078;11.968;2022-12-18T10:59:00;26.07;;;14.17;;
16828;SDS011;8531;48.078;11.968;2022-12-18T11:01:32;29.83;;;16.17;;
16828;SDS011;8531;48.078;11.968;2022-12-18T11:04:13;32.30;;;16.57;;
16828;SDS011;8531;48.078;11.968;2022-12-18T11:06:52;27.27;;;14.93;;
16828;SDS011;8531;48.078;11.968;2022-12-18T11:09:32;30.07;;;15.23;;
16828;SDS011;8531;48.078;11.968;2022-12-18T11:12:01;25.90;;;13.83;;
16828;SDS011;8531;48.078;11.968;2022-12-18T11:14:32;27.13;;;13.80;;
16828;SDS011;8531;48.078;11.968;2022-12-18T11:17:16;26.30;;;13.60;;
16828;SDS011;8531;48.078;11.968;2022-12-18T11:19:46;28.87;;;14.50;;
16828;SDS011;8531;48.078;11.968;2022-12-18T11:22:28;29.53;;;14.90;;
16828;SDS011;8531;48.078;11.968;2022-12-18T11:25:06;26.50;;;14.50;;
16828;SDS011;8531;48.078;11.968;2022-12-18T11:27:47;29.13;;;15.37;;
16828;SDS011;8531;48.078;11.968;2022-12-18T11:30:21;29.23;;;14.73;;
16828;SDS011;8531;48.078;11.968;2022-12-18T11:33:03;26.90;;;14.30;;
16828;SDS011;8531;48.078;11.968;2022-12-18T11:38:06;32.63;;;17.00;;
16828;SDS011;8531;48.078;11.968;2022-12-18T11:40:45;29.57;;;15.83;;
16828;SDS011;8531;48.078;11.968;2022-12-18T11:43:17;32.00;;;15.93;;
16828;SDS011;8531;48.078;11.968;2022-12-18T11:46:08;31.90;;;17.13;;
16828;SDS011;8531;48.078;11.968;2022-12-18T11:51:26;29.40;;;16.10;;
16828;SDS011;8531;48.078;11.968;2022-12-18T11:53:58;34.60;;;18.07;;
16828;SDS011;8531;48.078;11.968;2022-12-18T11:56:39;32.60;;;17.23;;
16828;SDS011;8531;48.078;11.968;2022-12-18T12:01:52;30.93;;;16.47;;
16828;SDS011;8531;48.078;11.968;2022-12-18T12:09:48;31.53;;;17.47;;
16828;SDS011;8531;48.078;11.968;2022-12-18T12:13:14;29.77;;;16.80;;
16828;SDS011;8531;48.078;11.968;2022-12-18T12:21:40;30.77;;;15.53;;
16828;SDS011;8531;48.078;11.968;2022-12-18T12:29:34;29.90;;;15.63;;
16828;SDS011;8531;48.078;11.968;2022-12-18T12:40:19;28.60;;;15.90;;
16828;SDS011;8531;48.078;11.968;2022-12-18T12:42:54;33.50;;;16.30;;
16828;SDS011;8531;48.078;11.968;2022-12-18T12:45:51;30.57;;;15.43;;
16828;SDS011;8531;48.078;11.968;2022-12-18T12:51:51;31.40;;;16.97;;
16828;SDS011;8531;48.078;11.968;2022-12-18T12:54:00;31.83;;;16.60;;
16828;SDS011;8531;48.078;11.968;2022-12-18T12:56:40;30.40;;;15.47;;
16828;SDS011;8531;48.078;11.968;2022-12-18T12:59:19;28.13;;;14.87;;
16828;SDS011;8531;48.078;11.968;2022-12-18T13:02:10;31.40;;;15.87;;
16828;SDS011;8531;48.078;11.968;2022-12-18T13:07:20;31.73;;;16.00;;
16828;SDS011;8531;48.078;11.968;2022-12-18T13:10:13;32.97;;;16.07;;
16828;SDS011;8531;48.078;11.968;2022-12-18T13:12:58;29.37;;;15.83;;
16828;SDS011;8531;48.078;11.968;2022-12-18T13:18:04;30.47;;;15.37;;
16828;SDS011;8531;48.078;11.968;2022-12-18T13:20:45;31.23;;;15.47;;
16828;SDS011;8531;48.078;11.968;2022-12-18T13:31:06;28.07;;;14.63;;
16828;SDS011;8531;48.078;11.968;2022-12-18T13:33:39;29.03;;;16.07;;
16828;SDS011;8531;48.078;11.968;2022-12-18T13:36:12;30.00;;;16.17;;
16828;SDS011;8531;48.078;11.968;2022-12-18T13:38:47;28.93;;;16.57;;
16828;SDS011;8531;48.078;11.968;2022-12-18T13:41:33;29.47;;;16.70;;
16828;SDS011;8531;48.078;11.968;2022-12-18T13:44:11;35.00;;;17.33;;
16828;SDS011;8531;48.078;11.968;2022-12-18T13:46:47;31.47;;;16.13;;
16828;SDS011;8531;48.078;11.968;2022-12-18T13:52:16;27.93;;;15.17;;
16828;SDS011;8531;48.078;11.968;2022-12-18T13:54:43;29.57;;;15.10;;
16828;SDS011;8531;48.078;11.968;2022-12-18T13:57:30;31.10;;;16.00;;
16828;SDS011;8531;48.078;11.968;2022-12-18T13:59:59;26.00;;;13.73;;
16828;SDS011;8531;48.078;11.968;2022-12-18T14:02:44;26.20;;;13.70;;
16828;SDS011;8531;48.078;11.968;2022-12-18T14:07:48;23.37;;;13.87;;
16828;SDS011;8531;48.078;11.968;2022-12-18T14:10:15;22.20;;;13.53;;
16828;SDS011;8531;48.078;11.968;2022-12-18T14:12:44;27.67;;;13.93;;
16828;SDS011;8531;48.078;11.968;2022-12-18T14:17:51;24.07;;;13.63;;
16828;SDS011;8531;48.078;11.968;2022-12-18T14:20:22;27.93;;;14.83;;
16828;SDS011;8531;48.078;11.968;2022-12-18T14:22:49;27.10;;;14.97;;
16828;SDS011;8531;48.078;11.968;2022-12-18T14:27:43;29.57;;;15.37;;
16828;SDS011;8531;48.078;11.968;2022-12-18T14:33:02;29.40;;;15.80;;
16828;SDS011;8531;48.078;11.968;2022-12-18T14:35:29;29.00;;;14.00;;
16828;SDS011;8531;48.078;11.968;2022-12-18T14:38:40;30.23;;;15.77;;
16828;SDS011;8531;48.078;11.968;2022-12-18T14:40:44;32.47;;;15.60;;
16828;SDS011;8531;48.078;11.968;2022-12-18T14:43:10;30.20;;;14.90;;
16828;SDS011;8531;48.078;11.968;2022-12-18T14:45:36;28.23;;;16.00;;
16828;SDS011;8531;48.078;11.968;2022-12-18T14:48:16;25.20;;;13.70;;
16828;SDS011;8531;48.078;11.968;2022-12-18T14:50:44;28.67;;;15.93;;
16828;SDS011;8531;48.078;11.968;2022-12-18T14:53:20;32.80;;;16.27;;
16828;SDS011;8531;48.078;11.968;2022-12-18T14:55:48;31.03;;;15.67;;
16828;SDS011;8531;48.078;11.968;2022-12-18T14:58:15;28.20;;;15.33;;
16828;SDS011;8531;48.078;11.968;2022-12-18T15:00:42;23.97;;;14.10;;
16828;SDS011;8531;48.078;11.968;2022-12-18T15:03:08;28.57;;;15.47;;
16828;SDS011;8531;48.078;11.968;2022-12-18T15:05:35;30.00;;;15.43;;
16828;SDS011;8531;48.078;11.968;2022-12-18T15:08:01;25.97;;;14.53;;
16828;SDS011;8531;48.078;11.968;2022-12-18T15:10:28;28.17;;;15.10;;
16828;SDS011;8531;48.078;11.968;2022-12-18T15:20:45;25.87;;;14.40;;
16828;SDS011;8531;48.078;11.968;2022-12-18T15:26:06;24.23;;;13.33;;
16828;SDS011;8531;48.078;11.968;2022-12-18T15:28:48;25.40;;;14.47;;
16828;SDS011;8531;48.078;11.968;2022-12-18T15:31:24;31.80;;;16.63;;
16828;SDS011;8531;48.078;11.968;2022-12-18T15:36:21;33.23;;;15.90;;
16828;SDS011;8531;48.078;11.968;2022-12-18T15:38:48;28.23;;;14.67;;
16828;SDS011;8531;48.078;11.968;2022-12-18T15:41:16;24.20;;;13.90;;
16828;SDS011;8531;48.078;11.968;2022-12-18T15:43:43;30.87;;;16.43;;
16828;SDS011;8531;48.078;11.968;2022-12-18T15:46:11;29.40;;;15.57;;
16828;SDS011;8531;48.078;11.968;2022-12-18T15:48:40;29.43;;;14.87;;
16828;SDS011;8531;48.078;11.968;2022-12-18T15:51:18;34.17;;;16.80;;
16828;SDS011;8531;48.078;11.968;2022-12-18T15:53:45;34.03;;;17.37;;
16828;SDS011;8531;48.078;11.968;2022-12-18T15:56:16;28.77;;;15.30;;
16828;SDS011;8531;48.078;11.968;2022-12-18T15:59:02;34.33;;;16.63;;
16828;SDS011;8531;48.078;11.968;2022-12-18T16:01:34;29.80;;;16.37;;
16828;SDS011;8531;48.078;11.968;2022-12-18T16:04:00;28.33;;;15.87;;
16828;SDS011;8531;48.078;11.968;2022-12-18T16:06:26;29.00;;;16.80;;
16828;SDS011;8531;48.078;11.968;2022-12-18T16:08:51;30.10;;;15.93;;
16828;SDS011;8531;48.078;11.968;2022-12-18T16:14:03;28.03;;;15.80;;
16828;SDS011;8531;48.078;11.968;2022-12-18T16:16:52;27.23;;;16.47;;
16828;SDS011;8531;48.078;11.968;2022-12-18T16:19:19;25.50;;;15.17;;
16828;SDS011;8531;48.078;11.968;2022-12-18T16:21:46;33.00;;;17.67;;
16828;SDS011;8531;48.078;11.968;2022-12-18T16:24:16;30.73;;;16.30;;
16828;SDS011;8531;48.078;11.968;2022-12-18T16:26:44;26.33;;;14.80;;
16828;SDS011;8531;48.078;11.968;2022-12-18T16:29:10;29.63;;;17.47;;
16828;SDS011;8531;48.078;11.968;2022-12-18T16:31:36;29.93;;;15.87;;
16828;SDS011;8531;48.078;11.968;2022-12-18T16:34:09;32.83;;;16.60;;
16828;SDS011;8531;48.078;11.968;2022-12-18T16:36:42;33.03;;;16.50;;
16828;SDS011;8531;48.078;11.968;2022-12-18T16:39:08;33.70;;;18.10;;
16828;SDS011;8531;48.078;11.968;2022-12-18T16:41:33;28.77;;;16.83;;
16828;SDS011;8531;48.078;11.968;2022-12-18T16:44:00;31.37;;;16.20;;
16828;SDS011;8531;48.078;11.968;2022-12-18T16:46:26;30.23;;;16.23;;
16828;SDS011;8531;48.078;11.968;2022-12-18T16:48:51;30.77;;;17.30;;
16828;SDS011;8531;48.078;11.968;2022-12-18T16:51:17;34.33;;;16.60;;